Time,TemperatureF,DewpointF,PressureIn,WindDirection,WindDirectionDegrees,WindSpeedMPH,WindSpeedGustMPH,Humidity,HourlyPrecipIn,Conditions,Clouds,dailyrainin,SolarRadiationWatts/m^2,SoftwareType,DateUTC
2013-08-05 00:12:00,53.9,52.8,30.09,SE,141,0.0,0.0,96,0.00,,,0.00,0,Wunderground v.1.15,2013-08-05 05:12:00,
2013-08-05 00:22:00,53.3,52.2,30.08,SE,141,0.0,0.0,96,0.00,,,0.00,0,Wunderground v.1.15,2013-08-05 05:22:00,
2013-08-05 00:32:00,53.3,52.2,30.08,SE,141,0.0,2.0,96,0.00,,,0.00,0,Wunderground v.1.15,2013-08-05 05:32:00,
2013-08-05 00:42:00,53.6,52.2,30.08,SE,141,0.0,0.0,95,0.00,,,0.00,0,Wunderground v.1.15,2013-08-05 05:42:00,
2013-08-05 00:52:00,53.3,51.6,30.08,SE,141,0.0,0.0,94,0.00,,,0.00,0,Wunderground v.1.15,2013-08-05 05:52:00,
2013-08-05 01:12:00,52.3,50.6,30.08,SE,141,0.0,0.0,94,0.00,,,0.00,0,Wunderground v.1.15,2013-08-05 06:12:00,
2013-08-05 01:22:00,51.9,50.5,30.08,SE,141,0.0,0.0,95,0.00,,,0.00,0,Wunderground v.1.15,2013-08-05 06:22:00,
2013-08-05 01:32:00,52.0,50.9,30.08,SE,141,0.0,0.0,96,0.00,,,0.00,0,Wunderground v.1.15,2013-08-05 06:32:00,
2013-08-05 01:42:00,53.1,51.7,30.08,SE,141,0.0,0.0,95,0.00,,,0.00,0,Wunderground v.1.15,2013-08-05 06:42:00,
2013-08-05 01:52:00,52.6,50.9,30.07,SE,141,0.0,0.0,94,0.00,,,0.00,0,Wunderground v.1.15,2013-08-05 06:52:00,
2013-08-05 02:02:00,52.0,50.3,30.07,SE,141,0.0,0.0,94,0.00,,,0.00,0,Wunderground v.1.15,2013-08-05 07:02:00,
2013-08-05 02:12:00,51.9,50.2,30.06,SE,141,0.0,0.0,94,0.00,,,0.00,0,Wunderground v.1.15,2013-08-05 07:12:00,
2013-08-05 02:21:00,51.3,49.6,30.06,SE,141,0.0,0.0,94,0.00,,,0.00,0,Wunderground v.1.15,2013-08-05 07:21:00,
2013-08-05 02:32:00,51.0,49.3,30.06,SE,141,0.0,1.0,94,0.00,,,0.00,0,Wunderground v.1.15,2013-08-05 07:32:00,
2013-08-05 02:42:00,50.5,49.1,30.05,SE,141,0.0,0.0,95,0.00,,,0.00,0,Wunderground v.1.15,2013-08-05 07:42:00,
2013-08-05 02:52:00,50.2,49.1,30.05,SE,141,0.0,0.0,96,0.00,,,0.00,0,Wunderground v.1.15,2013-08-05 07:52:00,
2013-08-05 03:02:00,50.1,49.3,30.05,SE,141,0.0,0.0,97,0.00,,,0.00,0,Wunderground v.1.15,2013-08-05 08:02:00,
2013-08-05 03:12:00,50.1,49.6,30.05,SE,141,0.0,0.0,98,0.00,,,0.00,0,Wunderground v.1.15,2013-08-05 08:12:00,
2013-08-05 03:22:00,49.8,49.3,30.05,SE,141,0.0,0.0,98,0.00,,,0.00,0,Wunderground v.1.15,2013-08-05 08:22:00,
2013-08-05 03:32:00,50.1,49.6,30.05,SE,141,0.0,0.0,98,0.00,,,0.00,0,Wunderground v.1.15,2013-08-05 08:32:00,
2013-08-05 03:42:00,50.4,49.9,30.05,SE,141,0.0,0.0,98,0.00,,,0.00,0,Wunderground v.1.15,2013-08-05 08:42:00,
2013-08-05 04:01:00,50.8,49.4,30.04,SE,141,0.0,0.0,95,0.00,,,0.00,0,Wunderground v.1.15,2013-08-05 09:01:00,
2013-08-05 04:12:00,50.8,48.8,30.04,SE,141,0.0,0.0,93,0.00,,,0.00,0,Wunderground v.1.15,2013-08-05 09:12:00,
2013-08-05 04:32:00,50.1,48.7,30.04,SE,141,0.0,1.0,95,0.00,,,0.00,0,Wunderground v.1.15,2013-08-05 09:32:00,
2013-08-05 04:42:00,50.1,49.0,30.04,SE,141,0.0,0.0,96,0.00,,,0.00,0,Wunderground v.1.15,2013-08-05 09:42:00,
2013-08-05 04:52:00,50.4,49.6,30.04,SE,141,0.0,0.0,97,0.00,,,0.00,0,Wunderground v.1.15,2013-08-05 09:52:00,
2013-08-05 05:02:00,50.7,49.9,30.04,SE,141,0.0,0.0,97,0.00,,,0.00,0,Wunderground v.1.15,2013-08-05 10:02:00,
2013-08-05 05:12:00,51.0,50.5,30.04,SE,141,0.0,0.0,98,0.00,,,0.00,0,Wunderground v.1.15,2013-08-05 10:12:00,
2013-08-05 05:22:00,51.3,50.5,30.04,SE,141,0.0,0.0,97,0.00,,,0.00,0,Wunderground v.1.15,2013-08-05 10:22:00,
2013-08-05 05:42:00,52.3,50.0,30.04,SE,141,0.0,0.0,92,0.00,,,0.00,0,Wunderground v.1.15,2013-08-05 10:42:00,
2013-08-05 05:52:00,52.8,49.3,30.04,SE,141,0.0,0.0,88,0.00,,,0.00,5,Wunderground v.1.15,2013-08-05 10:52:00,
2013-08-05 06:12:00,53.8,48.8,30.03,SE,141,0.0,0.0,83,0.00,,,0.00,16,Wunderground v.1.15,2013-08-05 11:12:00,
2013-08-05 06:22:00,54.5,48.8,30.03,SE,141,0.0,0.0,81,0.00,,,0.00,23,Wunderground v.1.15,2013-08-05 11:22:00,
2013-08-05 06:42:00,55.3,49.6,30.03,SE,141,0.0,0.0,81,0.00,,,0.00,49,Wunderground v.1.15,2013-08-05 11:42:00,
2013-08-05 07:12:00,56.5,50.7,30.02,SE,141,0.0,0.0,81,0.00,,,0.00,123,Wunderground v.1.15,2013-08-05 12:12:00,
2013-08-05 07:22:00,57.2,51.4,30.03,SE,141,0.0,0.0,81,0.00,,,0.00,118,Wunderground v.1.15,2013-08-05 12:22:00,
2013-08-05 07:42:00,57.8,51.3,30.03,SE,141,0.0,0.0,79,0.00,,,0.00,90,Wunderground v.1.15,2013-08-05 12:42:00,
2013-08-05 08:02:00,60.2,52.6,30.02,SE,141,1.0,1.0,76,0.00,,,0.00,257,Wunderground v.1.15,2013-08-05 13:02:00,
2013-08-05 08:12:00,61.5,53.1,30.01,SE,141,2.0,2.0,74,0.00,,,0.00,334,Wunderground v.1.15,2013-08-05 13:12:00,
2013-08-05 08:22:00,62.6,53.8,30.01,SE,141,2.0,2.0,73,0.00,,,0.00,262,Wunderground v.1.15,2013-08-05 13:22:00,
2013-08-05 08:32:00,63.4,54.2,30.01,South,171,3.0,5.0,72,0.00,,,0.00,273,Wunderground v.1.15,2013-08-05 13:32:00,
2013-08-05 08:42:00,64.2,54.6,30.00,South,188,4.0,7.0,71,0.00,,,0.00,187,Wunderground v.1.15,2013-08-05 13:42:00,
2013-08-05 08:52:00,64.5,52.9,30.00,South,169,8.0,8.0,66,0.00,,,0.00,202,Wunderground v.1.15,2013-08-05 13:52:00,
2013-08-05 09:12:00,64.7,55.1,29.99,SSW,206,7.0,8.0,71,0.00,,,0.00,241,Wunderground v.1.15,2013-08-05 14:12:00,
2013-08-05 09:21:00,64.3,55.5,30.00,SSE,167,7.0,8.0,73,0.00,,,0.00,150,Wunderground v.1.15,2013-08-05 14:21:00,
2013-08-05 09:32:00,64.7,57.0,30.00,SSW,203,6.0,6.0,76,0.00,,,0.00,243,Wunderground v.1.15,2013-08-05 14:32:00,
2013-08-05 09:42:00,65.0,56.9,29.99,South,181,6.0,7.0,75,0.00,,,0.00,266,Wunderground v.1.15,2013-08-05 14:42:00,
2013-08-05 09:52:00,65.0,57.6,29.99,SSW,200,8.0,8.0,77,0.00,,,0.00,220,Wunderground v.1.15,2013-08-05 14:52:00,
2013-08-05 10:12:00,65.5,57.0,29.98,SSW,195,9.0,15.0,74,0.00,,,0.00,304,Wunderground v.1.15,2013-08-05 15:12:00,
2013-08-05 10:42:00,66.1,57.9,29.97,South,169,8.0,12.0,75,0.00,,,0.00,431,Wunderground v.1.15,2013-08-05 15:42:00,
2013-08-05 10:52:00,66.4,58.2,29.96,SW,222,9.0,9.0,75,0.00,,,0.00,315,Wunderground v.1.15,2013-08-05 15:52:00,
2013-08-05 11:02:00,66.0,57.5,29.96,SSW,195,8.0,8.0,74,0.00,,,0.00,257,Wunderground v.1.15,2013-08-05 16:02:00,
2013-08-05 11:12:00,65.3,57.2,29.96,South,176,10.0,10.0,75,0.00,,,0.00,125,Wunderground v.1.15,2013-08-05 16:12:00,
2013-08-05 11:22:00,65.0,57.6,29.97,SSW,198,9.0,12.0,77,0.00,,,0.00,146,Wunderground v.1.15,2013-08-05 16:22:00,
2013-08-05 11:31:00,65.2,58.2,29.97,SSW,193,8.0,8.0,78,0.00,,,0.00,215,Wunderground v.1.15,2013-08-05 16:31:00,
2013-08-05 11:42:00,65.2,58.2,29.95,South,176,7.0,11.0,78,0.00,,,0.00,190,Wunderground v.1.15,2013-08-05 16:42:00,
2013-08-05 11:52:00,65.2,57.8,29.95,South,184,7.0,7.0,77,0.00,,,0.00,206,Wunderground v.1.15,2013-08-05 16:52:00,
2013-08-05 12:02:00,65.3,57.5,29.95,SSW,206,8.0,13.0,76,0.00,,,0.00,245,Wunderground v.1.15,2013-08-05 17:02:00,
2013-08-05 12:12:00,65.3,58.3,29.95,South,182,9.0,12.0,78,0.00,,,0.00,229,Wunderground v.1.15,2013-08-05 17:12:00,
2013-08-05 12:22:00,65.2,58.2,29.95,South,189,9.0,12.0,78,0.00,,,0.00,230,Wunderground v.1.15,2013-08-05 17:22:00,
2013-08-05 12:41:00,65.3,58.6,29.95,South,188,8.0,10.0,79,0.00,,,0.00,326,Wunderground v.1.15,2013-08-05 17:41:00,
2013-08-05 12:52:00,65.8,59.5,29.94,SSE,162,8.0,8.0,80,0.00,,,0.00,157,Wunderground v.1.15,2013-08-05 17:52:00,
2013-08-05 13:12:00,64.2,60.9,29.95,SSW,196,7.0,7.0,89,0.00,,,0.00,290,Wunderground v.1.15,2013-08-05 18:12:00,
2013-08-05 13:22:00,64.5,61.2,29.95,South,181,6.0,7.0,89,0.00,,,0.00,190,Wunderground v.1.15,2013-08-05 18:22:00,
2013-08-05 13:32:00,64.5,60.9,29.95,SSE,168,7.0,7.0,88,0.00,,,0.00,125,Wunderground v.1.15,2013-08-05 18:32:00,
2013-08-05 13:42:00,64.5,60.5,29.95,South,188,7.0,7.0,87,0.00,,,0.00,113,Wunderground v.1.15,2013-08-05 18:42:00,
2013-08-05 14:02:00,64.3,60.7,29.94,South,172,7.0,7.0,88,0.00,,,0.00,99,Wunderground v.1.15,2013-08-05 19:02:00,
2013-08-05 14:12:00,64.5,60.9,29.93,South,191,7.0,7.0,88,0.00,,,0.00,128,Wunderground v.1.15,2013-08-05 19:12:00,
2013-08-05 14:22:00,64.8,61.2,29.93,SSW,192,8.0,10.0,88,0.00,,,0.00,218,Wunderground v.1.15,2013-08-05 19:22:00,
2013-08-05 14:32:00,65.3,61.3,29.93,SSW,195,10.0,10.0,87,0.00,,,0.00,181,Wunderground v.1.15,2013-08-05 19:32:00,
2013-08-05 14:52:00,65.2,61.2,29.92,SSW,213,10.0,16.0,87,0.00,,,0.00,134,Wunderground v.1.15,2013-08-05 19:52:00,
2013-08-05 15:22:00,65.6,61.9,29.91,South,191,7.0,11.0,88,0.00,,,0.00,318,Wunderground v.1.15,2013-08-05 20:22:00,
2013-08-05 15:32:00,66.1,62.1,29.91,South,175,10.0,10.0,87,0.00,,,0.00,320,Wunderground v.1.15,2013-08-05 20:32:00,
2013-08-05 15:42:00,66.1,62.8,29.90,SSE,161,11.0,11.0,89,0.00,,,0.00,269,Wunderground v.1.15,2013-08-05 20:42:00,
2013-08-05 15:52:00,66.1,63.1,29.90,SSE,154,9.0,9.0,90,0.00,,,0.00,326,Wunderground v.1.15,2013-08-05 20:52:00,
2013-08-05 16:12:00,66.3,63.0,29.89,South,182,9.0,10.0,89,0.00,,,0.00,220,Wunderground v.1.15,2013-08-05 21:12:00,
2013-08-05 16:32:00,66.3,62.6,29.89,South,174,13.0,13.0,88,0.00,,,0.00,274,Wunderground v.1.15,2013-08-05 21:32:00,
2013-08-05 16:42:00,66.3,62.0,29.89,SSW,200,14.0,14.0,86,0.00,,,0.00,271,Wunderground v.1.15,2013-08-05 21:42:00,
2013-08-05 16:52:00,66.1,61.8,29.88,SSE,162,11.0,11.0,86,0.00,,,0.00,174,Wunderground v.1.15,2013-08-05 21:52:00,
2013-08-05 17:02:00,65.6,61.9,29.88,SE,145,12.0,12.0,88,0.00,,,0.00,148,Wunderground v.1.15,2013-08-05 22:02:00,
2013-08-05 17:12:00,65.5,61.9,29.88,South,186,11.0,13.0,88,0.00,,,0.00,135,Wunderground v.1.15,2013-08-05 22:12:00,
2013-08-05 17:22:00,65.5,61.9,29.88,South,189,9.0,12.0,88,0.00,,,0.00,134,Wunderground v.1.15,2013-08-05 22:22:00,
2013-08-05 17:32:00,65.3,62.0,29.88,South,175,9.0,10.0,89,0.00,,,0.00,81,Wunderground v.1.15,2013-08-05 22:32:00,
2013-08-05 17:42:00,65.0,61.7,29.87,SSW,206,9.0,9.0,89,0.00,,,0.00,86,Wunderground v.1.15,2013-08-05 22:42:00,
2013-08-05 17:52:00,65.0,62.0,29.87,SSE,160,7.0,11.0,90,0.00,,,0.00,72,Wunderground v.1.15,2013-08-05 22:52:00,
2013-08-05 18:02:00,64.8,61.8,29.87,South,181,8.0,8.0,90,0.00,,,0.00,67,Wunderground v.1.15,2013-08-05 23:02:00,
2013-08-05 18:22:00,64.8,61.5,29.85,South,185,7.0,7.0,89,0.00,,,0.00,81,Wunderground v.1.15,2013-08-05 23:22:00,
2013-08-05 18:42:00,64.8,61.8,29.85,South,172,9.0,11.0,90,0.00,,,0.00,55,Wunderground v.1.15,2013-08-05 23:42:00,
2013-08-05 18:52:00,64.7,61.7,29.85,SSW,203,8.0,12.0,90,0.00,,,0.00,35,Wunderground v.1.15,2013-08-05 23:52:00,
2013-08-05 19:02:00,64.5,61.8,29.85,SSW,192,8.0,8.0,91,0.00,,,0.00,28,Wunderground v.1.15,2013-08-06 00:02:00,
2013-08-05 19:12:00,64.5,61.8,29.85,South,181,8.0,8.0,91,0.00,,,0.00,32,Wunderground v.1.15,2013-08-06 00:12:00,
2013-08-05 19:22:00,64.5,62.1,29.84,SW,215,8.0,8.0,92,0.00,,,0.00,28,Wunderground v.1.15,2013-08-06 00:22:00,
2013-08-05 19:42:00,64.7,62.3,29.84,SSW,199,7.0,7.0,92,0.00,,,0.00,12,Wunderground v.1.15,2013-08-06 00:42:00,
2013-08-05 19:52:00,64.7,62.3,29.83,South,188,7.0,8.0,92,0.00,,,0.00,21,Wunderground v.1.15,2013-08-06 00:52:00,
2013-08-05 20:42:00,64.3,62.8,29.83,SSE,161,5.0,5.0,95,0.00,,,0.00,0,Wunderground v.1.15,2013-08-06 01:42:00,
2013-08-05 20:52:00,64.3,63.1,29.83,South,178,5.0,8.0,96,0.00,,,0.00,0,Wunderground v.1.15,2013-08-06 01:52:00,
2013-08-05 21:02:00,64.2,63.0,29.83,SSE,167,4.0,5.0,96,0.00,,,0.00,0,Wunderground v.1.15,2013-08-06 02:02:00,
2013-08-05 21:12:00,64.2,63.3,29.83,South,176,4.0,4.0,97,0.00,,,0.00,0,Wunderground v.1.15,2013-08-06 02:12:00,
2013-08-05 21:22:00,64.2,63.3,29.83,South,174,4.0,4.0,97,0.00,,,0.00,0,Wunderground v.1.15,2013-08-06 02:22:00,
2013-08-05 21:32:00,64.2,63.6,29.83,SSW,200,4.0,4.0,98,0.00,,,0.00,0,Wunderground v.1.15,2013-08-06 02:32:00,
2013-08-05 21:42:00,64.2,63.6,29.83,SSW,193,3.0,3.0,98,0.00,,,0.00,0,Wunderground v.1.15,2013-08-06 02:42:00,
2013-08-05 21:52:00,64.0,63.4,29.83,SSW,192,3.0,3.0,98,0.00,,,0.00,0,Wunderground v.1.15,2013-08-06 02:52:00,
2013-08-05 22:02:00,64.2,63.6,29.83,SSW,195,3.0,3.0,98,0.00,,,0.00,0,Wunderground v.1.15,2013-08-06 03:02:00,
2013-08-05 22:12:00,64.2,63.9,29.83,SSW,195,2.0,2.0,99,0.00,,,0.00,0,Wunderground v.1.15,2013-08-06 03:12:00,
2013-08-05 22:22:00,64.2,63.9,29.83,SSW,195,2.0,2.0,99,0.00,,,0.00,0,Wunderground v.1.15,2013-08-06 03:22:00,
2013-08-05 22:32:00,64.3,64.0,29.83,South,175,2.0,3.0,99,0.00,,,0.00,0,Wunderground v.1.15,2013-08-06 03:32:00,
2013-08-05 22:42:00,64.5,63.9,29.83,South,189,4.0,6.0,98,0.00,,,0.00,0,Wunderground v.1.15,2013-08-06 03:42:00,
2013-08-05 22:52:00,64.5,63.9,29.83,SSW,196,4.0,4.0,98,0.00,,,0.00,0,Wunderground v.1.15,2013-08-06 03:52:00,
2013-08-05 23:02:00,64.7,63.8,29.83,SSW,192,3.0,5.0,97,0.00,,,0.00,0,Wunderground v.1.15,2013-08-06 04:02:00,
2013-08-05 23:12:00,64.5,63.6,29.83,SSW,195,3.0,5.0,97,0.00,,,0.00,0,Wunderground v.1.15,2013-08-06 04:12:00,
2013-08-05 23:22:00,64.5,63.6,29.83,SSW,195,4.0,4.0,97,0.00,,,0.00,0,Wunderground v.1.15,2013-08-06 04:22:00,
2013-08-05 23:32:00,64.3,63.4,29.83,SSW,193,3.0,3.0,97,0.00,,,0.00,0,Wunderground v.1.15,2013-08-06 04:32:00,
2013-08-05 23:42:00,64.3,63.4,29.83,SSW,193,1.0,3.0,97,0.00,,,0.00,0,Wunderground v.1.15,2013-08-06 04:42:00,
2013-08-05 23:52:00,64.3,63.4,29.83,SSW,198,3.0,3.0,97,0.00,,,0.00,0,Wunderground v.1.15,2013-08-06 04:52:00,